createdAt,value
2023-09-13T00:02:23.637Z,19.80
2023-09-13T00:04:51.963Z,19.80
2023-09-13T00:07:20.975Z,19.70
2023-09-13T00:09:49.057Z,19.70
2023-09-13T00:12:17.148Z,19.80
2023-09-13T00:14:45.346Z,19.80
2023-09-13T00:17:16.224Z,19.80
2023-09-13T00:19:44.259Z,19.90
2023-09-13T00:22:15.262Z,19.80
2023-09-13T00:24:45.109Z,19.60
2023-09-13T00:27:13.264Z,19.40
2023-09-13T00:29:41.460Z,19.20
2023-09-13T00:32:09.639Z,19.10
2023-09-13T00:34:37.763Z,19.10
2023-09-13T00:37:06.070Z,19.00
2023-09-13T00:39:37.322Z,18.90
2023-09-13T00:42:05.745Z,18.90
2023-09-13T00:44:34.202Z,18.80
2023-09-13T00:47:02.504Z,18.80
2023-09-13T00:49:30.927Z,18.90
2023-09-13T00:52:00.182Z,18.80
2023-09-13T00:54:29.173Z,18.90
2023-09-13T00:56:58.434Z,18.90
2023-09-13T00:59:27.770Z,18.90
2023-09-13T01:01:55.906Z,19.00
2023-09-13T01:04:24.209Z,19.00
2023-09-13T01:06:53.566Z,19.00
2023-09-13T01:09:21.737Z,19.00
2023-09-13T01:11:51.464Z,19.10
2023-09-13T01:14:20.798Z,19.00
2023-09-13T01:16:53.936Z,19.00
2023-09-13T01:19:40.979Z,18.90
2023-09-13T01:22:17.454Z,18.80
2023-09-13T01:24:54.702Z,18.70
2023-09-13T01:27:29.241Z,18.70
2023-09-13T01:29:58.566Z,18.80
2023-09-13T01:32:26.652Z,18.80
2023-09-13T01:34:55.063Z,18.80
2023-09-13T01:37:23.741Z,18.80
2023-09-13T01:39:51.957Z,18.80
2023-09-13T01:42:20.361Z,18.90
2023-09-13T01:44:49.112Z,18.90
2023-09-13T01:47:17.713Z,19.00
2023-09-13T01:49:47.251Z,19.00
2023-09-13T01:52:15.615Z,19.00
2023-09-13T01:54:44.000Z,19.00
2023-09-13T01:57:12.100Z,19.00
2023-09-13T01:59:40.225Z,19.00
2023-09-13T02:02:08.411Z,19.00
2023-09-13T02:04:37.338Z,19.00
2023-09-13T02:07:06.245Z,19.00
2023-09-13T02:09:34.564Z,19.00
2023-09-13T02:12:04.167Z,18.90
2023-09-13T02:14:32.233Z,18.90
2023-09-13T02:17:00.834Z,18.90
2023-09-13T02:19:29.219Z,19.00
2023-09-13T02:21:57.671Z,19.00
2023-09-13T02:24:26.680Z,19.00
2023-09-13T02:27:01.440Z,19.00
2023-09-13T02:29:29.631Z,19.00
2023-09-13T02:31:57.820Z,19.00
2023-09-13T02:34:30.545Z,19.00
2023-09-13T02:37:02.434Z,19.00
2023-09-13T02:39:37.047Z,19.00
2023-09-13T02:42:05.967Z,19.10
2023-09-13T02:44:35.156Z,19.10
2023-09-13T02:47:07.988Z,19.00
2023-09-13T02:49:36.382Z,18.90
2023-09-13T02:52:05.360Z,18.80
2023-09-13T02:54:34.303Z,18.70
2023-09-13T02:57:02.944Z,18.80
2023-09-13T02:59:33.975Z,18.80
2023-09-13T03:02:02.290Z,18.90
2023-09-13T03:04:30.902Z,18.90
2023-09-13T03:06:59.090Z,18.90
2023-09-13T03:09:27.743Z,18.90
2023-09-13T03:11:56.249Z,18.90
2023-09-13T03:14:24.761Z,19.00
2023-09-13T03:16:53.444Z,19.10
2023-09-13T03:19:22.007Z,19.10
2023-09-13T03:21:50.179Z,19.00
2023-09-13T03:24:18.727Z,18.90
2023-09-13T03:26:46.874Z,18.90
2023-09-13T03:29:15.007Z,18.80
2023-09-13T03:31:43.604Z,18.90
2023-09-13T03:34:14.994Z,18.90
2023-09-13T03:36:45.775Z,18.90
2023-09-13T03:39:13.951Z,19.00
2023-09-13T03:41:42.693Z,18.90
2023-09-13T03:44:10.963Z,18.90
2023-09-13T03:46:39.570Z,18.90
2023-09-13T03:49:07.919Z,18.80
2023-09-13T03:51:36.610Z,18.90
2023-09-13T03:54:08.717Z,18.90
2023-09-13T03:56:37.026Z,19.00
2023-09-13T03:59:06.689Z,19.00
2023-09-13T04:01:35.007Z,19.00
2023-09-13T04:04:03.925Z,19.10
2023-09-13T04:06:32.234Z,19.00
2023-09-13T04:09:00.360Z,19.00
2023-09-13T04:11:31.134Z,19.00
2023-09-13T04:13:59.284Z,19.00
2023-09-13T04:16:27.568Z,19.10
2023-09-13T04:18:56.478Z,19.10
2023-09-13T04:21:24.709Z,19.10
2023-09-13T04:23:52.875Z,19.10
2023-09-13T04:26:23.960Z,19.00
2023-09-13T04:28:53.404Z,18.90
2023-09-13T04:31:22.889Z,18.90
2023-09-13T04:33:55.698Z,18.80
2023-09-13T04:36:28.515Z,18.80
2023-09-13T04:38:58.811Z,18.80
2023-09-13T04:41:27.300Z,18.80
2023-09-13T04:43:55.440Z,18.80
2023-09-13T04:46:23.662Z,18.90
2023-09-13T04:48:51.950Z,19.00
2023-09-13T04:51:20.097Z,18.90
2023-09-13T04:53:48.330Z,18.90
2023-09-13T04:56:17.078Z,18.90
2023-09-13T04:58:51.266Z,18.90
2023-09-13T05:01:19.702Z,18.90
2023-09-13T05:03:49.443Z,19.00
2023-09-13T05:06:18.271Z,19.00
2023-09-13T05:08:46.712Z,19.10
2023-09-13T05:11:17.642Z,19.10
2023-09-13T05:13:50.228Z,19.10
2023-09-13T05:16:22.372Z,19.10
2023-09-13T05:18:50.901Z,19.10
2023-09-13T05:21:19.074Z,19.10
2023-09-13T05:23:47.396Z,19.10
2023-09-13T05:26:15.666Z,19.10
2023-09-13T05:28:44.504Z,19.10
2023-09-13T05:31:12.632Z,19.10
2023-09-13T05:33:40.847Z,19.10
2023-09-13T05:36:12.183Z,19.10
2023-09-13T05:38:41.256Z,19.20
2023-09-13T05:41:10.181Z,19.10
2023-09-13T05:43:42.629Z,19.10
2023-09-13T05:46:11.466Z,19.20
2023-09-13T05:48:39.756Z,19.30
2023-09-13T05:51:07.774Z,19.40
2023-09-13T05:53:35.843Z,19.60
2023-09-13T05:56:05.876Z,19.70
2023-09-13T05:58:34.038Z,19.70
2023-09-13T06:01:02.256Z,19.70
2023-09-13T06:03:32.756Z,19.80
2023-09-13T06:06:00.843Z,19.90
2023-09-13T06:08:29.507Z,20.00
2023-09-13T06:10:58.201Z,20.10
2023-09-13T06:13:26.860Z,20.30
2023-09-13T06:15:55.255Z,20.40
2023-09-13T06:18:23.577Z,20.60
2023-09-13T06:20:51.996Z,20.70
2023-09-13T06:23:39.409Z,20.90
2023-09-13T06:26:10.732Z,21.30
2023-09-13T06:28:39.218Z,21.60
2023-09-13T06:31:07.643Z,21.80
2023-09-13T06:33:42.532Z,21.80
2023-09-13T06:36:11.517Z,21.60
2023-09-13T06:38:40.919Z,21.30
2023-09-13T06:41:09.821Z,21.40
2023-09-13T06:43:57.174Z,21.40
2023-09-13T06:46:27.640Z,21.40
2023-09-13T06:48:56.523Z,21.50
2023-09-13T06:51:49.955Z,22.00
2023-09-13T06:54:17.947Z,22.10
2023-09-13T06:56:51.474Z,22.20
2023-09-13T06:59:22.930Z,22.70
2023-09-13T07:04:32.000Z,22.90
2023-09-13T07:07:05.110Z,22.60
2023-09-13T07:09:33.225Z,22.30
2023-09-13T07:12:01.430Z,22.00
2023-09-13T07:14:29.459Z,21.80
2023-09-13T07:16:57.615Z,21.40
2023-09-13T07:19:26.005Z,21.30
2023-09-13T07:21:54.120Z,21.20
2023-09-13T07:24:22.567Z,21.10
2023-09-13T07:26:50.709Z,21.10
2023-09-13T07:29:20.584Z,21.00
2023-09-13T07:31:48.716Z,21.10
2023-09-13T07:34:30.794Z,21.10
2023-09-13T07:36:59.317Z,21.10
2023-09-13T07:39:28.425Z,21.20
2023-09-13T07:41:56.480Z,21.30
2023-09-13T07:44:27.248Z,21.20
2023-09-13T07:46:58.343Z,21.20
2023-09-13T07:49:28.134Z,21.30
2023-09-13T07:51:56.589Z,21.50
2023-09-13T07:54:24.644Z,21.60
2023-09-13T07:56:52.760Z,21.60
2023-09-13T07:59:22.178Z,21.60
2023-09-13T08:01:51.679Z,21.60
2023-09-13T08:04:21.530Z,21.60
2023-09-13T08:06:49.737Z,21.50
2023-09-13T08:09:18.406Z,21.40
2023-09-13T08:11:47.590Z,21.30
2023-09-13T08:14:15.669Z,21.30
2023-09-13T08:16:43.787Z,21.50
2023-09-13T08:19:12.046Z,21.70
2023-09-13T08:21:40.572Z,21.80
2023-09-13T08:24:08.704Z,21.70
2023-09-13T08:26:37.171Z,21.70
2023-09-13T08:29:06.251Z,21.70
2023-09-13T08:31:34.594Z,21.60
2023-09-13T08:34:02.695Z,21.50
2023-09-13T08:36:30.781Z,21.40
2023-09-13T08:38:58.834Z,21.40
2023-09-13T08:41:26.980Z,21.40
2023-09-13T08:43:55.589Z,21.50
2023-09-13T08:46:23.940Z,21.60
2023-09-13T08:48:52.458Z,21.70
2023-09-13T08:51:21.799Z,22.10
2023-09-13T08:53:52.101Z,22.50
2023-09-13T08:56:21.507Z,23.10
2023-09-13T08:58:49.642Z,23.40
2023-09-13T09:01:20.242Z,23.30
2023-09-13T09:03:49.639Z,23.20
2023-09-13T09:06:20.350Z,23.20
2023-09-13T09:08:50.354Z,23.30
2023-09-13T09:11:20.836Z,23.30
2023-09-13T09:13:49.105Z,23.40
2023-09-13T09:16:22.227Z,23.80
2023-09-13T09:18:50.954Z,24.20
2023-09-13T09:21:19.123Z,24.50
2023-09-13T09:23:47.271Z,24.30
2023-09-13T09:26:15.518Z,24.20
2023-09-13T09:28:44.190Z,23.90
2023-09-13T09:31:13.290Z,23.80
2023-09-13T09:33:41.828Z,23.60
2023-09-13T09:36:11.006Z,23.50
2023-09-13T09:38:39.092Z,23.20
2023-09-13T09:41:09.068Z,23.30
2023-09-13T09:43:38.645Z,23.50
2023-09-13T09:46:08.331Z,23.50
2023-09-13T09:48:36.502Z,23.40
2023-09-13T09:51:05.012Z,23.30
2023-09-13T09:53:37.127Z,23.30
2023-09-13T09:56:05.718Z,23.30
2023-09-13T09:58:33.937Z,23.50
2023-09-13T10:01:08.065Z,24.10
2023-09-13T10:03:37.253Z,24.20
2023-09-13T10:06:11.417Z,23.90
2023-09-13T10:08:47.622Z,23.50
2023-09-13T10:11:18.471Z,23.40
2023-09-13T10:13:57.725Z,23.70
2023-09-13T10:16:33.410Z,23.90
2023-09-13T10:19:05.174Z,24.40
2023-09-13T10:21:35.295Z,24.90
2023-09-13T10:24:10.120Z,25.40
2023-09-13T10:26:38.327Z,25.10
2023-09-13T10:29:10.649Z,24.90
2023-09-13T10:31:42.089Z,24.90
2023-09-13T10:34:12.359Z,24.70
2023-09-13T10:36:44.636Z,24.60
2023-09-13T10:39:33.475Z,24.30
2023-09-13T10:42:09.815Z,24.10
2023-09-13T10:53:26.403Z,23.80
2023-09-13T10:59:58.613Z,23.70
2023-09-13T11:02:36.418Z,23.70
2023-09-13T11:08:36.489Z,23.60
2023-09-13T11:11:19.333Z,23.60
2023-09-13T11:13:48.682Z,23.50
2023-09-13T11:16:17.701Z,23.40
2023-09-13T11:18:54.061Z,23.40
2023-09-13T11:21:47.828Z,23.40
2023-09-13T11:24:31.007Z,23.40
2023-09-13T11:27:10.919Z,23.40
2023-09-13T11:29:46.920Z,23.40
2023-09-13T11:32:20.226Z,23.50
2023-09-13T11:34:55.143Z,23.50
2023-09-13T11:37:27.167Z,23.50
2023-09-13T11:39:56.470Z,23.50
2023-09-13T11:42:35.986Z,23.50
2023-09-13T11:45:22.197Z,23.50
2023-09-13T11:47:57.655Z,23.70
2023-09-13T11:50:41.209Z,23.90
2023-09-13T11:53:23.853Z,24.10
2023-09-13T11:56:12.032Z,24.20
2023-09-13T11:58:51.675Z,24.40
2023-09-13T12:01:26.524Z,24.60
2023-09-13T12:04:45.974Z,24.70
2023-09-13T12:06:47.701Z,24.80
2023-09-13T12:09:25.446Z,24.60
2023-09-13T12:12:02.187Z,24.40
2023-09-13T12:17:06.761Z,24.10
2023-09-13T12:19:38.133Z,24.10
2023-09-13T12:22:06.683Z,24.00
2023-09-13T12:24:35.459Z,23.90
2023-09-13T12:27:04.332Z,23.90
2023-09-13T12:29:32.590Z,23.80
2023-09-13T12:32:02.458Z,23.60
2023-09-13T12:34:30.904Z,23.50
2023-09-13T12:36:59.397Z,23.50
2023-09-13T12:39:29.584Z,23.50
2023-09-13T12:41:58.678Z,23.50
2023-09-13T12:44:27.130Z,23.50
2023-09-13T12:46:55.782Z,23.50
2023-09-13T12:49:24.188Z,23.60
2023-09-13T12:51:54.206Z,23.60
2023-09-13T12:54:23.127Z,23.40
2023-09-13T12:57:07.236Z,23.30
2023-09-13T12:59:49.934Z,23.10
2023-09-13T13:02:21.070Z,22.90
2023-09-13T13:08:01.917Z,22.50
2023-09-13T13:10:41.936Z,22.30
2023-09-13T13:13:13.280Z,22.10
2023-09-13T13:15:46.901Z,22.10
2023-09-13T13:18:19.956Z,22.20
2023-09-13T13:21:07.185Z,22.10
2023-09-13T13:23:37.571Z,22.20
2023-09-13T13:26:05.837Z,22.50
2023-09-13T13:28:34.102Z,22.70
2023-09-13T13:31:02.315Z,22.70
2023-09-13T13:33:30.670Z,22.70
2023-09-13T13:36:01.208Z,22.80
2023-09-13T13:38:29.558Z,22.80
2023-09-13T13:41:14.822Z,22.70
2023-09-13T13:43:43.592Z,22.80
2023-09-13T13:46:14.801Z,22.80
2023-09-13T13:48:45.344Z,22.70
2023-09-13T13:51:13.705Z,22.70
2023-09-13T13:53:45.338Z,22.70
2023-09-13T13:56:13.796Z,22.50
2023-09-13T13:58:42.089Z,22.40
2023-09-13T14:01:10.362Z,22.40
2023-09-13T14:03:38.858Z,22.40
2023-09-13T14:06:07.360Z,22.50
2023-09-13T14:08:35.476Z,22.50
2023-09-13T14:11:05.891Z,22.30
2023-09-13T14:13:34.234Z,22.20
2023-09-13T14:16:02.527Z,22.10
2023-09-13T14:18:31.272Z,22.10
2023-09-13T14:20:59.714Z,22.00
2023-09-13T14:23:28.381Z,22.00
2023-09-13T14:25:56.577Z,22.00
2023-09-13T14:28:24.895Z,22.10
2023-09-13T14:30:55.620Z,22.20
2023-09-13T14:33:24.857Z,22.20
2023-09-13T14:35:54.728Z,22.30
2023-09-13T14:38:23.319Z,22.40
2023-09-13T14:40:51.584Z,22.50
2023-09-13T14:43:19.784Z,22.70
2023-09-13T14:45:48.123Z,22.90
2023-09-13T14:48:16.735Z,22.80
2023-09-13T14:50:45.862Z,22.80
2023-09-13T14:53:26.699Z,22.90
2023-09-13T14:56:04.115Z,23.00
2023-09-13T14:58:36.197Z,23.10
2023-09-13T15:01:08.009Z,23.10
2023-09-13T15:03:38.357Z,23.10
2023-09-13T15:06:06.772Z,23.00
2023-09-13T15:08:34.971Z,22.90
2023-09-13T15:11:03.366Z,22.90
2023-09-13T15:13:31.464Z,22.90
2023-09-13T15:15:59.975Z,23.00
2023-09-13T15:18:28.288Z,23.00
2023-09-13T15:20:56.719Z,23.00
2023-09-13T15:23:24.971Z,22.90
2023-09-13T15:25:53.161Z,22.80
2023-09-13T15:28:23.059Z,22.80
2023-09-13T15:30:53.737Z,22.90
2023-09-13T15:33:22.002Z,22.90
2023-09-13T15:35:50.340Z,23.00
2023-09-13T15:38:22.859Z,23.00
2023-09-13T15:40:54.444Z,23.00
2023-09-13T15:43:45.118Z,22.90
2023-09-13T15:46:22.097Z,22.90
2023-09-13T15:48:51.949Z,22.90
2023-09-13T15:51:30.525Z,23.00
2023-09-13T15:54:29.418Z,22.90
2023-09-13T15:57:12.477Z,22.90
2023-09-13T15:59:46.903Z,22.80
2023-09-13T16:02:30.362Z,22.80
2023-09-13T16:05:06.273Z,22.70
2023-09-13T16:07:44.649Z,22.70
2023-09-13T16:13:13.026Z,22.60
2023-09-13T16:15:51.041Z,22.60
2023-09-13T16:18:22.549Z,22.60
2023-09-13T16:20:56.397Z,22.60
2023-09-13T16:23:31.073Z,22.60
2023-09-13T16:26:16.932Z,22.50
2023-09-13T16:31:43.499Z,22.50
2023-09-13T16:37:16.787Z,22.50
2023-09-13T16:40:42.304Z,22.50
2023-09-13T16:43:21.559Z,22.50
2023-09-13T16:45:55.183Z,22.50
2023-09-13T16:51:11.074Z,22.40
2023-09-13T16:53:49.751Z,22.40
2023-09-13T16:56:20.987Z,22.30
2023-09-13T16:58:55.241Z,22.30
2023-09-13T17:01:29.457Z,22.20
2023-09-13T17:04:04.548Z,22.20
2023-09-13T17:06:42.834Z,22.20
2023-09-13T17:09:22.169Z,22.00
2023-09-13T17:11:56.843Z,22.00
2023-09-13T17:14:29.239Z,22.00
2023-09-13T17:17:05.898Z,22.00
2023-09-13T17:19:37.623Z,22.00
2023-09-13T17:22:06.670Z,22.00
2023-09-13T17:24:43.499Z,21.90
2023-09-13T17:27:12.211Z,21.90
2023-09-13T17:29:40.918Z,21.90
2023-09-13T17:32:09.898Z,21.80
2023-09-13T17:37:53.142Z,21.80
2023-09-13T17:40:30.944Z,21.70
2023-09-13T17:43:11.648Z,21.70
2023-09-13T17:45:43.343Z,21.70
2023-09-13T17:48:15.059Z,21.70
2023-09-13T17:50:44.598Z,21.60
2023-09-13T17:53:16.745Z,21.60
2023-09-13T17:56:15.330Z,21.50
2023-09-13T17:58:49.160Z,21.40
2023-09-13T18:01:34.097Z,21.40
2023-09-13T18:04:06.844Z,21.30
2023-09-13T18:06:43.209Z,21.20
2023-09-13T18:09:14.514Z,21.00
2023-09-13T18:11:46.476Z,20.70
2023-09-13T18:14:24.217Z,20.70
2023-09-13T18:16:57.293Z,20.70
2023-09-13T18:19:33.975Z,20.60
2023-09-13T18:22:05.792Z,20.60
2023-09-13T18:24:39.785Z,20.50
2023-09-13T18:27:20.815Z,20.50
2023-09-13T18:30:07.401Z,20.40
2023-09-13T18:32:44.689Z,20.50
2023-09-13T18:35:14.604Z,20.40
2023-09-13T18:37:43.264Z,20.40
2023-09-13T18:40:15.287Z,20.40
2023-09-13T18:42:52.028Z,20.30
2023-09-13T18:45:21.113Z,20.30
2023-09-13T18:47:52.542Z,20.30
2023-09-13T18:50:29.390Z,20.30
2023-09-13T18:53:06.374Z,20.40
2023-09-13T18:55:40.117Z,20.40
2023-09-13T18:58:09.157Z,20.40
2023-09-13T19:00:51.383Z,20.30
2023-09-13T19:03:25.160Z,20.20
2023-09-13T19:06:17.610Z,20.20
2023-09-13T19:08:55.438Z,20.10
2023-09-13T19:11:29.379Z,20.20
2023-09-13T19:14:01.123Z,20.00
2023-09-13T19:16:32.010Z,20.00
2023-09-13T19:19:08.497Z,20.00
2023-09-13T19:21:52.290Z,20.00
2023-09-13T19:24:23.571Z,20.00
2023-09-13T19:26:57.492Z,20.00
2023-09-13T19:29:28.139Z,20.00
2023-09-13T19:31:57.039Z,20.00
2023-09-13T19:34:37.644Z,20.10
2023-09-13T19:37:12.091Z,20.00
2023-09-13T19:39:41.681Z,20.00
2023-09-13T19:42:22.388Z,20.00
2023-09-13T19:45:04.522Z,20.10
2023-09-13T19:47:51.885Z,20.10
2023-09-13T19:50:28.676Z,20.10
2023-09-13T19:53:03.300Z,20.00
2023-09-13T19:55:33.758Z,20.00
2023-09-13T19:58:03.484Z,20.00
2023-09-13T20:00:44.934Z,19.90
2023-09-13T20:03:22.409Z,19.90
2023-09-13T20:05:52.157Z,19.90
2023-09-13T20:08:21.633Z,19.80
2023-09-13T20:10:54.505Z,19.80
2023-09-13T20:13:23.452Z,19.70
2023-09-13T20:15:56.143Z,19.70
2023-09-13T20:18:26.212Z,19.70
2023-09-13T20:21:03.870Z,19.60
2023-09-13T20:23:35.499Z,19.60
2023-09-13T20:26:08.601Z,19.50
2023-09-13T20:28:47.769Z,19.40
2023-09-13T20:31:26.348Z,19.30
2023-09-13T20:34:04.597Z,19.30
2023-09-13T20:36:34.711Z,19.30
2023-09-13T20:39:06.310Z,19.30
2023-09-13T20:41:38.282Z,19.30
2023-09-13T20:44:16.151Z,19.30
2023-09-13T20:46:51.159Z,19.40
2023-09-13T20:49:20.247Z,19.40
2023-09-13T20:51:51.577Z,19.40
2023-09-13T20:54:25.395Z,19.40
2023-09-13T20:56:57.110Z,19.50
2023-09-13T20:59:29.418Z,19.50
2023-09-13T21:01:58.881Z,19.50
2023-09-13T21:04:38.399Z,19.50
2023-09-13T21:07:10.178Z,19.50
2023-09-13T21:09:43.594Z,19.50
2023-09-13T21:12:15.001Z,19.50
2023-09-13T21:14:43.928Z,19.50
2023-09-13T21:17:12.457Z,19.50
2023-09-13T21:19:46.751Z,19.50
2023-09-13T21:22:18.246Z,19.40
2023-09-13T21:24:47.178Z,19.40
2023-09-13T21:27:17.130Z,19.40
2023-09-13T21:29:46.147Z,19.40
2023-09-13T21:32:17.761Z,19.40
2023-09-13T21:35:03.072Z,19.40
2023-09-13T21:37:37.457Z,19.40
2023-09-13T21:40:16.047Z,19.40
2023-09-13T21:42:50.955Z,19.40
2023-09-13T21:45:22.911Z,19.40
2023-09-13T21:47:57.279Z,19.40
2023-09-13T21:50:26.151Z,19.40
2023-09-13T21:52:56.898Z,19.40
2023-09-13T21:55:25.850Z,19.40
2023-09-13T21:57:59.514Z,19.30
2023-09-13T22:00:31.420Z,19.30
2023-09-13T22:03:05.922Z,19.20
2023-09-13T22:05:35.141Z,19.20
2023-09-13T22:08:05.887Z,19.10
2023-09-13T22:10:34.977Z,19.00
2023-09-13T22:13:14.667Z,19.00
2023-09-13T22:15:48.205Z,18.90
2023-09-13T22:18:19.888Z,18.90
2023-09-13T22:20:55.816Z,18.90
2023-09-13T22:23:33.332Z,18.90
2023-09-13T22:26:03.248Z,18.80
2023-09-13T22:28:35.401Z,18.80
2023-09-13T22:31:08.083Z,18.80
2023-09-13T22:33:40.074Z,18.80
2023-09-13T22:36:13.569Z,18.70
2023-09-13T22:38:51.474Z,18.70
2023-09-13T22:41:30.974Z,18.60
2023-09-13T22:43:59.887Z,18.60
2023-09-13T22:46:28.990Z,18.50
2023-09-13T22:49:02.716Z,18.40
2023-09-13T22:51:31.607Z,18.40
2023-09-13T22:54:06.141Z,18.30
2023-09-13T22:56:52.812Z,18.30
2023-09-13T22:59:30.762Z,18.20
2023-09-13T23:02:02.190Z,18.10
2023-09-13T23:04:44.869Z,18.10
2023-09-13T23:07:19.972Z,18.10
2023-09-13T23:09:54.384Z,18.10
2023-09-13T23:12:28.349Z,18.00
2023-09-13T23:14:59.520Z,18.00
2023-09-13T23:17:32.176Z,17.90
2023-09-13T23:20:04.388Z,17.80
2023-09-13T23:22:33.199Z,17.80
2023-09-13T23:25:03.740Z,17.70
2023-09-13T23:27:33.305Z,17.70
2023-09-13T23:30:03.747Z,17.70
2023-09-13T23:32:33.316Z,17.60
2023-09-13T23:35:03.814Z,17.60
2023-09-13T23:37:31.921Z,17.60
2023-09-13T23:40:00.430Z,17.50
2023-09-13T23:42:28.696Z,17.50
2023-09-13T23:45:00.810Z,17.40
2023-09-13T23:47:32.442Z,17.30
2023-09-13T23:50:00.882Z,17.30
2023-09-13T23:52:29.008Z,17.30
2023-09-13T23:54:57.358Z,17.30
2023-09-13T23:57:25.593Z,17.30
2023-09-13T23:59:53.887Z,17.20
